Time;durP1;ratioP1;P1;durP2;ratioP2;P2;SDS_P1;SDS_P2;PMS_P1;PMS_P2;Temp;Humidity;BMP_temperature;BMP_pressure;BME280_temperature;BME280_humidity;BME280_pressure;Samples;Min_cycle;Max_cycle;Signal;HPM_P1;HPM_P2
2023/02/22 00:01:00;;;;;;;8.70;7.80;;;10.10;99.90;;;;;;5058380;28;20424;-44
2023/02/22 00:03:31;;;;;;;9.73;8.73;;;10.00;99.90;;;;;;5057746;28;20489;-42
2023/02/22 00:06:06;;;;;;;9.60;8.60;;;9.90;99.90;;;;;;5057307;28;20440;-44
2023/02/22 00:08:34;;;;;;;10.40;8.73;;;9.90;99.90;;;;;;5058410;28;20715;-42
2023/02/22 00:11:02;;;;;;;9.23;8.23;;;9.80;99.90;;;;;;5058256;28;20527;-41
2023/02/22 00:13:28;;;;;;;9.97;8.00;;;9.80;99.90;;;;;;5058147;28;20431;-41
2023/02/22 00:15:55;;;;;;;9.77;8.63;;;9.70;99.90;;;;;;5059039;28;20787;-42
2023/02/22 00:18:21;;;;;;;8.70;7.77;;;9.70;99.90;;;;;;5059440;28;20837;-43
2023/02/22 00:20:47;;;;;;;8.67;7.77;;;9.60;99.90;;;;;;5058914;28;20416;-41
2023/02/22 00:23:17;;;;;;;8.90;8.00;;;9.60;99.90;;;;;;5059376;28;20181;-44
2023/02/22 00:25:44;;;;;;;10.80;7.73;;;9.60;99.90;;;;;;5059100;28;20193;-43
2023/02/22 00:28:09;;;;;;;9.37;8.10;;;9.50;99.90;;;;;;5059214;28;20483;-42
2023/02/22 00:30:35;;;;;;;9.77;8.73;;;9.50;1.00;;;;;;5059558;28;20499;-42
2023/02/22 00:33:01;;;;;;;8.40;7.60;;;9.50;1.00;;;;;;5058810;28;20479;-41
2023/02/22 00:35:29;;;;;;;8.17;7.37;;;9.40;1.00;;;;;;5058846;28;20556;-43
2023/02/22 00:37:58;;;;;;;8.93;7.23;;;9.40;1.00;;;;;;5058052;28;20400;-43
2023/02/22 00:40:26;;;;;;;9.20;8.33;;;9.40;1.00;;;;;;5058913;28;20424;-42
2023/02/22 00:42:52;;;;;;;9.60;7.43;;;9.40;1.00;;;;;;5059207;28;20474;-42
2023/02/22 00:45:21;;;;;;;11.17;7.47;;;9.30;1.00;;;;;;5058798;28;20674;-41
2023/02/22 00:47:47;;;;;;;7.90;6.83;;;9.30;1.00;;;;;;5058594;28;20435;-42
2023/02/22 00:50:14;;;;;;;10.07;8.90;;;9.30;1.00;;;;;;5058891;28;20459;-44
2023/02/22 00:52:40;;;;;;;9.03;7.10;;;9.20;1.00;;;;;;5059032;28;20558;-43
2023/02/22 00:55:07;;;;;;;7.77;7.00;;;9.20;1.00;;;;;;5058893;28;20810;-42
2023/02/22 00:57:36;;;;;;;9.20;8.37;;;9.10;1.00;;;;;;5058919;28;20174;-45
2023/02/22 01:00:11;;;;;;;7.60;6.80;;;9.10;1.00;;;;;;5058619;28;20412;-43
2023/02/22 01:02:41;;;;;;;9.87;8.50;;;9.10;1.00;;;;;;5058325;28;20423;-42
2023/02/22 01:05:09;;;;;;;9.00;7.37;;;9.00;1.00;;;;;;5058138;28;20523;-42
2023/02/22 01:07:34;;;;;;;9.27;6.50;;;9.00;1.00;;;;;;5057982;28;20448;-42
2023/02/22 01:10:01;;;;;;;10.00;7.00;;;9.00;1.00;;;;;;5058121;28;20464;-43
2023/02/22 01:12:28;;;;;;;8.63;6.50;;;9.00;1.00;;;;;;5058575;28;20448;-43
2023/02/22 01:14:57;;;;;;;11.43;8.33;;;8.90;1.00;;;;;;5058138;28;20430;-42
2023/02/22 01:17:26;;;;;;;8.70;7.57;;;8.90;1.00;;;;;;5058724;28;20423;-41
2023/02/22 01:19:52;;;;;;;9.03;7.67;;;8.90;1.00;;;;;;5058311;28;20561;-42
2023/02/22 01:22:20;;;;;;;10.47;7.67;;;8.80;1.00;;;;;;5056225;28;20421;-42
2023/02/22 01:24:49;;;;;;;8.97;8.07;;;8.80;1.00;;;;;;5057045;28;20417;-44
2023/02/22 01:27:16;;;;;;;10.80;8.70;;;8.80;1.00;;;;;;5057901;28;20524;-42
2023/02/22 01:29:42;;;;;;;9.77;7.93;;;8.70;1.00;;;;;;5058374;28;20877;-43
2023/02/22 01:32:08;;;;;;;10.30;7.50;;;8.70;1.00;;;;;;5057268;28;20435;-42
2023/02/22 01:34:33;;;;;;;10.30;7.80;;;8.70;1.00;;;;;;5058397;28;20173;-43
2023/02/22 01:37:00;;;;;;;10.40;7.37;;;8.70;1.00;;;;;;5057926;28;20416;-42
2023/02/22 01:39:26;;;;;;;9.27;8.30;;;8.60;1.00;;;;;;5057664;28;20193;-42
2023/02/22 01:41:52;;;;;;;10.73;8.07;;;8.60;1.00;;;;;;5057584;28;20412;-43
2023/02/22 01:44:33;;;;;;;9.27;8.23;;;8.60;1.00;;;;;;5056957;28;20875;-41
2023/02/22 01:47:01;;;;;;;10.03;7.80;;;8.60;1.00;;;;;;5057365;28;20420;-44
2023/02/22 01:49:37;;;;;;;9.20;7.37;;;8.60;1.00;;;;;;5056821;28;20784;-42
2023/02/22 01:52:07;;;;;;;12.43;7.97;;;8.60;1.00;;;;;;5055121;28;20439;-42
2023/02/22 01:54:52;;;;;;;9.80;6.90;;;8.50;1.00;;;;;;5054365;28;20404;-42
2023/02/22 01:57:25;;;;;;;9.60;7.53;;;8.50;1.00;;;;;;5055986;28;20503;-42
2023/02/22 01:59:54;;;;;;;9.60;7.50;;;8.50;1.00;;;;;;5056637;28;20494;-44
2023/02/22 02:02:24;;;;;;;11.70;8.70;;;8.50;1.00;;;;;;5055344;28;20430;-43
2023/02/22 02:04:51;;;;;;;8.70;7.10;;;8.40;1.00;;;;;;5057191;28;20471;-43
2023/02/22 02:07:20;;;;;;;9.10;7.80;;;8.40;1.00;;;;;;5057947;28;20412;-43
2023/02/22 02:10:07;;;;;;;9.63;7.87;;;8.40;1.00;;;;;;5057088;28;20450;-43
2023/02/22 02:12:34;;;;;;;9.10;7.50;;;8.40;1.00;;;;;;5058397;28;20725;-43
2023/02/22 02:15:20;;;;;;;8.20;7.30;;;8.30;1.00;;;;;;5056471;28;20428;-43
2023/02/22 02:17:47;;;;;;;8.30;7.50;;;8.30;1.00;;;;;;5057899;28;20698;-41
2023/02/22 02:20:51;;;;;;;8.53;7.40;;;8.30;1.00;;;;;;5057131;28;20432;-41
2023/02/22 02:23:47;;;;;;;9.30;7.37;;;8.30;1.00;;;;;;5033505;28;20463;-42
2023/02/22 02:26:50;;;;;;;8.60;7.17;;;8.20;1.00;;;;;;5056566;28;20439;-42
2023/02/22 02:29:37;;;;;;;9.90;7.33;;;8.20;1.00;;;;;;5057209;28;20420;-42
2023/02/22 02:32:22;;;;;;;10.13;7.73;;;8.20;1.00;;;;;;5057126;28;20439;-42
2023/02/22 02:35:10;;;;;;;9.33;8.33;;;8.20;1.00;;;;;;5058185;28;20476;-44
2023/02/22 02:37:50;;;;;;;9.23;6.80;;;8.20;1.00;;;;;;5056141;28;20495;-43
2023/02/22 02:40:48;;;;;;;8.63;7.70;;;8.20;1.00;;;;;;5057320;28;20420;-43
2023/02/22 02:43:39;;;;;;;8.70;7.13;;;8.10;1.00;;;;;;5057443;28;20408;-41
2023/02/22 02:46:13;;;;;;;9.00;7.70;;;8.10;1.00;;;;;;5049239;28;20455;-42
2023/02/22 02:49:03;;;;;;;10.30;9.20;;;8.10;1.00;;;;;;5057664;28;20426;-45
2023/02/22 02:51:33;;;;;;;8.20;7.40;;;8.10;1.00;;;;;;5056452;28;20524;-45
2023/02/22 02:54:00;;;;;;;9.53;7.80;;;8.10;1.00;;;;;;5056400;28;20428;-44
2023/02/22 02:56:26;;;;;;;10.50;6.40;;;8.10;1.00;;;;;;5057071;28;20915;-43
2023/02/22 02:58:52;;;;;;;11.00;7.33;;;8.00;1.00;;;;;;5056458;28;20432;-42
2023/02/22 03:02:11;;;;;;;9.37;6.70;;;8.00;1.00;;;;;;5057281;28;20420;-45
2023/02/22 03:04:57;;;;;;;9.90;6.90;;;8.00;1.00;;;;;;4980380;28;20422;-43
2023/02/22 03:07:28;;;;;;;7.80;6.23;;;8.00;1.00;;;;;;4995832;28;20718;-42
2023/02/22 03:10:12;;;;;;;8.57;7.20;;;8.00;1.00;;;;;;5018580;28;20490;-45
2023/02/22 03:13:03;;;;;;;7.80;6.93;;;7.90;1.00;;;;;;5056718;28;20412;-43
2023/02/22 03:15:54;;;;;;;9.30;7.23;;;7.90;1.00;;;;;;5028218;28;20873;-43
2023/02/22 03:18:29;;;;;;;8.00;6.93;;;7.90;1.00;;;;;;5057327;28;20420;-43
2023/02/22 03:21:28;;;;;;;11.03;7.30;;;7.80;1.00;;;;;;5057374;28;20502;-44
2023/02/22 03:24:05;;;;;;;7.40;6.70;;;7.80;1.00;;;;;;5056262;28;20459;-42
2023/02/22 03:26:42;;;;;;;10.30;7.27;;;7.80;1.00;;;;;;5057528;28;20959;-42
2023/02/22 03:29:10;;;;;;;7.43;6.63;;;7.70;1.00;;;;;;5056305;28;20423;-42
2023/02/22 03:31:40;;;;;;;8.80;7.27;;;7.70;1.00;;;;;;5056375;28;20464;-42
2023/02/22 03:34:15;;;;;;;9.30;7.00;;;7.70;1.00;;;;;;5055656;28;20423;-42
2023/02/22 03:36:54;;;;;;;9.43;7.00;;;7.70;1.00;;;;;;5056302;28;20781;-42
2023/02/22 03:39:23;;;;;;;7.27;6.40;;;7.60;1.00;;;;;;5056721;28;20416;-43
2023/02/22 03:41:52;;;;;;;7.13;6.40;;;7.60;1.00;;;;;;5056979;28;20420;-42
2023/02/22 03:44:21;;;;;;;8.93;8.03;;;7.60;1.00;;;;;;5056203;28;20439;-43
2023/02/22 03:46:48;;;;;;;9.83;7.87;;;7.60;1.00;;;;;;5056387;28;20757;-43
2023/02/22 03:49:22;;;;;;;6.97;6.27;;;7.50;1.00;;;;;;5056307;28;20424;-42
2023/02/22 03:51:48;;;;;;;8.37;7.50;;;7.50;1.00;;;;;;5055506;28;20467;-44
2023/02/22 03:54:15;;;;;;;7.70;6.40;;;7.50;1.00;;;;;;5056937;28;20511;-44
2023/02/22 03:56:50;;;;;;;7.70;6.90;;;7.50;1.00;;;;;;5057753;28;20431;-42
2023/02/22 03:59:16;;;;;;;7.93;6.77;;;7.50;1.00;;;;;;5058865;28;20419;-41
2023/02/22 04:01:42;;;;;;;7.50;6.80;;;7.40;1.00;;;;;;5056941;28;20655;-43
2023/02/22 04:04:07;;;;;;;10.20;7.33;;;7.40;1.00;;;;;;5058118;28;20462;-50
2023/02/22 04:06:33;;;;;;;8.60;7.70;;;7.40;1.00;;;;;;5058561;28;20213;-43
2023/02/22 04:08:58;;;;;;;10.70;7.23;;;7.40;1.00;;;;;;5059503;28;20268;-42
2023/02/22 04:11:24;;;;;;;8.90;8.00;;;7.30;1.00;;;;;;5058580;28;20606;-42
2023/02/22 04:13:50;;;;;;;9.10;7.20;;;7.30;1.00;;;;;;5057118;28;20174;-42
2023/02/22 04:16:15;;;;;;;11.43;8.40;;;7.30;1.00;;;;;;5057758;28;20486;-43
2023/02/22 04:18:41;;;;;;;8.30;7.40;;;7.30;1.00;;;;;;5058961;28;20213;-44
2023/02/22 04:21:08;;;;;;;8.70;6.93;;;7.20;1.00;;;;;;5058570;28;20201;-42
2023/02/22 04:23:33;;;;;;;8.70;7.80;;;7.20;1.00;;;;;;5058307;28;20269;-43
2023/02/22 04:25:59;;;;;;;8.77;7.87;;;7.20;1.00;;;;;;5058867;28;20523;-44
2023/02/22 04:28:25;;;;;;;8.30;7.17;;;7.20;1.00;;;;;;5059430;28;20472;-42
2023/02/22 04:30:50;;;;;;;8.43;7.40;;;7.10;1.00;;;;;;5059383;28;20202;-42
2023/02/22 04:33:16;;;;;;;8.87;7.80;;;7.10;1.00;;;;;;5059942;28;20174;-41
2023/02/22 04:35:42;;;;;;;9.10;7.23;;;7.10;1.00;;;;;;5060106;28;20174;-43
2023/02/22 04:38:08;;;;;;;9.63;7.37;;;7.00;6.60;;;;;;5059667;28;20170;-42
2023/02/22 04:40:34;;;;;;;7.50;6.23;;;7.00;15.50;;;;;;5059665;28;20181;-42
2023/02/22 04:42:59;;;;;;;8.40;7.03;;;7.00;20.70;;;;;;5059475;28;20411;-43
2023/02/22 04:45:25;;;;;;;9.10;7.40;;;7.00;26.70;;;;;;5059405;28;20201;-42
2023/02/22 04:47:51;;;;;;;7.83;7.03;;;7.00;30.70;;;;;;5057711;28;20507;-42
2023/02/22 04:50:17;;;;;;;13.20;9.97;;;7.00;38.00;;;;;;5057089;28;20479;-43
2023/02/22 04:52:44;;;;;;;9.93;8.20;;;6.90;43.40;;;;;;5057140;28;20607;-43
2023/02/22 04:55:10;;;;;;;9.70;7.50;;;6.90;49.80;;;;;;5057000;28;20480;-41
2023/02/22 04:57:36;;;;;;;10.23;8.30;;;6.90;55.20;;;;;;5058077;28;20752;-42
2023/02/22 05:00:03;;;;;;;8.43;7.50;;;6.80;62.10;;;;;;5057813;28;20244;-42
2023/02/22 05:02:29;;;;;;;9.03;7.60;;;6.80;71.80;;;;;;5056831;28;20182;-42
2023/02/22 05:04:54;;;;;;;9.40;8.50;;;6.80;72.30;;;;;;5058881;28;20435;-43
2023/02/22 05:07:20;;;;;;;10.43;8.47;;;6.80;75.80;;;;;;5056722;28;20268;-43
2023/02/22 05:09:45;;;;;;;8.50;7.63;;;6.80;90.70;;;;;;5057795;28;20185;-43
2023/02/22 05:12:11;;;;;;;9.93;8.90;;;6.80;93.70;;;;;;5056059;28;20416;-42
2023/02/22 05:14:37;;;;;;;12.03;9.30;;;6.80;99.90;;;;;;5056715;28;20444;-44
2023/02/22 05:17:03;;;;;;;13.53;8.47;;;6.80;99.90;;;;;;5056020;28;20174;-42
2023/02/22 05:19:29;;;;;;;10.20;7.63;;;6.80;99.90;;;;;;5056517;28;20496;-43
2023/02/22 05:21:55;;;;;;;11.50;8.27;;;6.80;99.90;;;;;;5056343;28;20495;-42
2023/02/22 05:24:21;;;;;;;12.43;9.30;;;6.70;99.90;;;;;;5055683;28;20431;-42
2023/02/22 05:26:47;;;;;;;10.60;8.70;;;6.70;99.90;;;;;;5053636;28;20472;-43
2023/02/22 05:29:13;;;;;;;10.10;7.57;;;6.70;99.90;;;;;;5054986;28;20462;-44
2023/02/22 05:31:40;;;;;;;8.90;6.83;;;6.70;99.90;;;;;;5052109;28;20468;-42
2023/02/22 05:34:06;;;;;;;8.40;7.33;;;6.70;99.90;;;;;;5055734;28;20188;-42
2023/02/22 05:36:32;;;;;;;8.80;7.03;;;6.70;99.90;;;;;;5056682;28;20416;-42
2023/02/22 05:38:57;;;;;;;11.00;7.70;;;6.70;99.90;;;;;;5057509;28;20673;-43
2023/02/22 05:41:23;;;;;;;9.27;7.93;;;6.70;99.90;;;;;;5056080;28;20310;-42
2023/02/22 05:43:49;;;;;;;6.90;6.20;;;6.70;99.90;;;;;;5055982;28;20178;-42
2023/02/22 05:46:14;;;;;;;9.03;7.30;;;6.70;99.90;;;;;;5056781;28;20178;-45
2023/02/22 05:48:40;;;;;;;8.60;7.03;;;6.70;99.90;;;;;;5057571;28;20233;-42
2023/02/22 05:51:08;;;;;;;10.60;7.67;;;6.70;99.90;;;;;;5056972;28;20326;-42
2023/02/22 05:53:34;;;;;;;8.50;7.00;;;6.70;99.90;;;;;;5055666;28;20249;-42
2023/02/22 05:55:59;;;;;;;9.27;7.73;;;6.80;99.90;;;;;;5056172;28;20417;-42
2023/02/22 05:58:25;;;;;;;9.73;8.00;;;6.80;99.90;;;;;;5056814;28;20260;-43
2023/02/22 06:00:51;;;;;;;8.47;7.67;;;6.80;99.90;;;;;;5056097;28;20467;-42
2023/02/22 06:03:16;;;;;;;8.90;7.57;;;6.80;99.90;;;;;;5055418;28;20182;-42
2023/02/22 06:05:44;;;;;;;8.77;7.63;;;6.80;99.90;;;;;;5055116;28;20184;-43
2023/02/22 06:08:16;;;;;;;8.97;7.67;;;6.80;99.90;;;;;;5054420;28;20174;-43
2023/02/22 06:10:43;;;;;;;8.73;7.30;;;6.80;99.90;;;;;;5053759;28;20785;-42
2023/02/22 06:13:08;;;;;;;10.20;7.40;;;6.80;99.90;;;;;;5052246;28;20992;-42
2023/02/22 06:15:34;;;;;;;10.90;8.37;;;6.80;99.90;;;;;;5053679;28;20411;-43
2023/02/22 06:18:00;;;;;;;9.20;7.33;;;6.80;99.90;;;;;;5054032;28;20234;-42
2023/02/22 06:20:28;;;;;;;10.67;8.23;;;6.80;99.90;;;;;;5054880;28;20262;-43
2023/02/22 06:22:57;;;;;;;10.17;7.83;;;6.80;99.90;;;;;;5055292;28;20839;-42
2023/02/22 06:25:25;;;;;;;10.03;7.80;;;6.80;99.90;;;;;;5055040;28;20412;-43
2023/02/22 06:27:51;;;;;;;9.30;8.40;;;6.90;99.90;;;;;;5054394;28;20563;-42
2023/02/22 06:30:19;;;;;;;11.33;9.00;;;6.90;99.90;;;;;;5055256;28;20555;-43
2023/02/22 06:32:45;;;;;;;11.10;8.50;;;6.90;99.90;;;;;;5055415;28;20412;-42
2023/02/22 06:35:11;;;;;;;9.20;7.63;;;6.90;99.90;;;;;;5054123;28;20456;-43
2023/02/22 06:37:38;;;;;;;11.10;8.30;;;7.00;99.90;;;;;;5053816;28;20408;-45
2023/02/22 06:40:04;;;;;;;10.80;8.33;;;7.00;99.90;;;;;;5053068;28;20169;-42
2023/02/22 06:42:29;;;;;;;9.23;8.20;;;7.10;99.90;;;;;;5053832;28;20447;-42
2023/02/22 06:44:55;;;;;;;10.70;8.63;;;7.20;99.90;;;;;;5054739;28;20758;-41
2023/02/22 06:47:21;;;;;;;11.77;9.70;;;7.50;99.90;;;;;;5054755;28;20576;-42
2023/02/22 06:49:55;;;;;;;11.40;9.20;;;7.70;99.90;;;;;;5055575;28;20178;-42
2023/02/22 06:52:21;;;;;;;10.10;8.67;;;7.70;99.90;;;;;;5055407;28;20474;-43
2023/02/22 06:54:47;;;;;;;9.77;8.80;;;7.80;99.90;;;;;;5054306;28;20768;-42
2023/02/22 06:57:13;;;;;;;11.30;9.30;;;7.80;99.90;;;;;;5052751;28;20635;-43
2023/02/22 06:59:38;;;;;;;10.47;9.37;;;7.90;99.90;;;;;;5054537;28;20849;-42
2023/02/22 07:02:04;;;;;;;10.80;9.70;;;8.00;95.30;;;;;;5054389;28;20262;-42
2023/02/22 07:04:30;;;;;;;11.37;10.03;;;8.10;82.90;;;;;;5055056;28;20181;-42
2023/02/22 07:06:55;;;;;;;10.20;9.10;;;8.10;64.40;;;;;;5052262;28;20184;-43
2023/02/22 07:09:21;;;;;;;10.23;9.27;;;8.30;52.50;;;;;;5052646;28;20178;-43
2023/02/22 07:11:47;;;;;;;12.93;10.70;;;8.40;40.60;;;;;;5050753;28;20237;-43
2023/02/22 07:14:12;;;;;;;10.30;8.87;;;8.50;26.10;;;;;;5050654;28;20174;-44
2023/02/22 07:16:38;;;;;;;10.20;9.03;;;8.60;13.30;;;;;;5049714;28;20484;-44
2023/02/22 07:19:03;;;;;;;15.13;10.23;;;8.70;1.20;;;;;;5053510;28;20262;-42
2023/02/22 07:21:29;;;;;;;13.60;9.30;;;8.80;1.00;;;;;;5053374;28;20575;-43
2023/02/22 07:23:57;;;;;;;12.50;9.90;;;8.90;1.00;;;;;;5051741;28;20182;-43
2023/02/22 07:26:23;;;;;;;13.90;11.73;;;9.00;1.00;;;;;;5051973;28;20425;-43
2023/02/22 07:28:49;;;;;;;12.50;11.10;;;9.20;1.00;;;;;;5052056;28;20436;-42
2023/02/22 07:31:16;;;;;;;12.17;10.63;;;9.30;1.00;;;;;;5055143;28;20600;-44
2023/02/22 07:33:42;;;;;;;13.83;11.73;;;9.40;1.00;;;;;;5058775;28;20180;-43
2023/02/22 07:36:08;;;;;;;13.27;11.87;;;9.60;1.00;;;;;;5058252;28;20412;-42
2023/02/22 07:38:34;;;;;;;14.03;11.47;;;9.80;1.00;;;;;;5058337;28;20181;-42
2023/02/22 07:41:00;;;;;;;12.43;10.67;;;10.00;1.00;;;;;;5058281;28;20420;-45
2023/02/22 07:43:27;;;;;;;14.63;12.17;;;10.30;1.00;;;;;;5056282;28;20643;-43
2023/02/22 07:45:55;;;;;;;13.17;11.20;;;10.60;1.00;;;;;;5058504;28;20188;-42
2023/02/22 07:48:23;;;;;;;13.67;11.17;;;10.80;1.00;;;;;;5056735;28;20439;-42
2023/02/22 07:50:49;;;;;;;13.53;10.63;;;11.10;1.00;;;;;;5057120;28;20532;-42
2023/02/22 07:53:21;;;;;;;11.27;9.97;;;11.40;1.00;;;;;;5058954;28;20404;-43
2023/02/22 07:55:50;;;;;;;12.30;9.13;;;11.70;1.00;;;;;;5060181;28;20436;-43
2023/02/22 07:58:21;;;;;;;12.53;10.40;;;12.10;1.00;;;;;;5059577;28;20478;-43
2023/02/22 08:00:47;;;;;;;11.03;9.80;;;12.40;1.00;;;;;;5058063;28;20492;-41
2023/02/22 08:03:15;;;;;;;10.43;9.33;;;12.80;1.00;;;;;;5057737;28;20443;-42
2023/02/22 08:05:46;;;;;;;15.37;11.00;;;13.10;1.00;;;;;;5057578;28;20181;-42
2023/02/22 08:08:15;;;;;;;12.03;10.73;;;13.30;1.00;;;;;;5058134;28;20864;-42
2023/02/22 08:10:42;;;;;;;12.00;10.80;;;13.50;1.00;;;;;;5057327;28;20468;-42
2023/02/22 08:13:08;;;;;;;15.07;10.60;;;13.60;1.00;;;;;;5059810;28;20412;-43
2023/02/22 08:15:36;;;;;;;13.67;12.27;;;13.80;1.00;;;;;;5059517;28;20459;-44
2023/02/22 08:18:04;;;;;;;15.50;11.60;;;13.90;1.00;;;;;;5059164;28;20846;-42
2023/02/22 08:20:30;;;;;;;13.57;11.20;;;14.10;1.00;;;;;;5058436;28;20424;-45
2023/02/22 08:22:56;;;;;;;11.70;10.30;;;14.40;1.00;;;;;;5057180;28;20814;-44
2023/02/22 08:25:25;;;;;;;17.87;10.57;;;14.60;1.00;;;;;;5059035;28;20444;-44
2023/02/22 08:27:57;;;;;;;12.10;9.90;;;15.00;1.00;;;;;;5056993;28;20571;-44
2023/02/22 08:30:23;;;;;;;11.77;10.20;;;15.30;1.00;;;;;;5053580;28;20483;-42
2023/02/22 08:32:50;;;;;;;10.80;8.40;;;15.70;1.00;;;;;;5055147;28;20453;-43
2023/02/22 08:35:20;;;;;;;12.77;10.30;;;16.20;1.00;;;;;;5056866;28;20498;-43
2023/02/22 08:37:48;;;;;;;10.30;9.00;;;16.60;1.00;;;;;;5053551;28;20579;-44
2023/02/22 08:40:16;;;;;;;11.90;9.53;;;17.10;1.00;;;;;;5054311;28;20741;-43
2023/02/22 08:42:42;;;;;;;15.47;9.40;;;17.60;1.00;;;;;;5054612;28;20424;-44
2023/02/22 08:45:09;;;;;;;9.73;8.67;;;18.10;1.00;;;;;;5055619;28;20424;-44
2023/02/22 08:47:35;;;;;;;9.30;7.23;;;18.50;1.00;;;;;;5056392;28;20692;-44
2023/02/22 08:50:00;;;;;;;7.93;7.00;;;18.90;1.00;;;;;;5055579;28;20420;-44
2023/02/22 08:52:26;;;;;;;10.13;7.57;;;19.40;1.00;;;;;;5054228;28;20200;-42
2023/02/22 08:54:52;;;;;;;8.20;7.40;;;19.90;1.00;;;;;;5052513;28;20776;-43
2023/02/22 08:57:17;;;;;;;10.57;7.20;;;20.40;1.00;;;;;;5055240;28;20170;-42
2023/02/22 08:59:43;;;;;;;11.43;6.80;;;21.00;1.00;;;;;;5038238;28;20265;-45
2023/02/22 09:02:17;;;;;;;7.50;6.70;;;21.70;1.00;;;;;;5055560;28;20203;-42
2023/02/22 09:04:43;;;;;;;7.23;6.53;;;22.30;1.00;;;;;;5054815;28;20178;-43
2023/02/22 09:07:09;;;;;;;8.40;6.50;;;22.80;1.00;;;;;;5053648;28;20428;-44
2023/02/22 09:09:35;;;;;;;8.10;6.70;;;23.10;1.00;;;;;;5055619;28;20432;-44
2023/02/22 09:12:01;;;;;;;7.57;6.00;;;23.30;1.00;;;;;;5053903;28;20474;-44
2023/02/22 09:14:27;;;;;;;5.97;5.40;;;23.60;1.00;;;;;;5051820;28;20162;-44
2023/02/22 09:16:52;;;;;;;6.20;5.60;;;23.80;1.00;;;;;;5051859;28;20412;-43
2023/02/22 09:19:18;;;;;;;6.87;6.17;;;24.10;1.00;;;;;;5054178;28;20198;-45
2023/02/22 09:21:44;;;;;;;6.97;6.20;;;24.40;1.00;;;;;;5053528;28;20481;-44
2023/02/22 09:24:09;;;;;;;6.60;5.90;;;24.80;1.00;;;;;;5055221;28;20555;-45
2023/02/22 09:26:38;;;;;;;6.90;6.20;;;25.10;1.00;;;;;;5056318;28;20622;-51
2023/02/22 09:29:10;;;;;;;7.20;6.27;;;25.40;1.00;;;;;;5055271;28;20182;-44
2023/02/22 09:31:37;;;;;;;6.73;6.13;;;25.50;1.00;;;;;;5053179;28;20463;-44
2023/02/22 09:34:12;;;;;;;7.73;6.00;;;25.70;1.00;;;;;;5053281;28;20451;-45
2023/02/22 09:36:39;;;;;;;7.90;7.10;;;26.00;1.00;;;;;;5054218;28;20416;-44
2023/02/22 09:39:05;;;;;;;9.23;6.90;;;26.50;1.00;;;;;;5054629;28;20463;-45
2023/02/22 09:41:37;;;;;;;7.17;6.23;;;27.00;1.00;;;;;;5053578;28;20421;-43
2023/02/22 09:44:17;;;;;;;9.80;7.07;;;27.50;1.00;;;;;;5048894;28;20351;-43
2023/02/22 09:46:44;;;;;;;7.17;6.33;;;28.00;1.00;;;;;;5048739;28;20744;-44
2023/02/22 09:49:30;;;;;;;7.03;5.20;;;28.40;1.00;;;;;;5049328;28;20439;-46
2023/02/22 09:52:13;;;;;;;8.73;5.53;;;28.80;1.00;;;;;;5049484;28;20460;-46
2023/02/22 09:54:42;;;;;;;6.57;5.30;;;29.20;1.00;;;;;;5048605;28;20511;-46
2023/02/22 09:57:12;;;;;;;6.03;5.40;;;29.60;1.00;;;;;;5051059;28;20460;-43
2023/02/22 09:59:59;;;;;;;5.83;5.30;;;30.00;1.00;;;;;;5052948;28;20412;-44
2023/02/22 10:02:28;;;;;;;5.87;5.10;;;30.30;1.00;;;;;;5052749;28;20422;-45
2023/02/22 10:05:04;;;;;;;6.00;4.80;;;30.70;1.00;;;;;;5050725;28;20424;-46
2023/02/22 10:07:38;;;;;;;8.23;5.80;;;31.00;1.00;;;;;;5052162;28;20420;-45
2023/02/22 10:10:12;;;;;;;8.23;4.80;;;31.30;1.00;;;;;;5050544;28;20411;-44
2023/02/22 10:12:59;;;;;;;6.83;4.80;;;31.60;1.00;;;;;;5053835;28;20505;-44
2023/02/22 10:16:05;;;;;;;6.37;5.70;;;32.10;1.00;;;;;;5046592;28;20425;-46
2023/02/22 10:18:55;;;;;;;6.30;5.60;;;32.30;1.00;;;;;;5035742;28;20754;-44
2023/02/22 10:21:35;;;;;;;8.97;5.57;;;32.50;1.00;;;;;;5035039;28;20410;-44
2023/02/22 10:24:26;;;;;;;10.60;5.90;;;32.40;1.00;;;;;;5033243;28;20403;-47
2023/02/22 10:26:53;;;;;;;9.90;5.60;;;32.20;1.00;;;;;;5035270;28;20781;-46
2023/02/22 10:29:38;;;;;;;7.77;4.67;;;32.20;1.00;;;;;;5034556;28;20518;-44
2023/02/22 10:32:05;;;;;;;8.30;5.13;;;32.20;1.00;;;;;;5036104;28;20525;-46
2023/02/22 10:34:47;;;;;;;5.03;4.30;;;32.40;1.00;;;;;;5035382;28;20400;-47
2023/02/22 10:37:22;;;;;;;5.70;5.20;;;32.90;1.00;;;;;;5032241;28;20430;-49
2023/02/22 10:39:49;;;;;;;6.17;4.40;;;33.20;1.00;;;;;;5029200;28;20518;-46
2023/02/22 10:42:14;;;;;;;5.07;3.60;;;33.40;1.00;;;;;;5032286;28;20421;-46
2023/02/22 10:44:40;;;;;;;4.77;3.90;;;33.70;1.00;;;;;;5033449;28;20473;-46
2023/02/22 10:47:10;;;;;;;4.60;4.20;;;33.90;1.00;;;;;;5033924;28;20178;-45
2023/02/22 10:49:39;;;;;;;4.73;4.33;;;34.00;1.00;;;;;;5031956;28;20520;-47
2023/02/22 10:52:13;;;;;;;6.67;4.53;;;33.80;1.00;;;;;;5031778;28;20542;-45
2023/02/22 10:54:41;;;;;;;6.73;4.70;;;33.50;1.00;;;;;;5032038;28;20518;-46
2023/02/22 10:57:08;;;;;;;4.57;4.17;;;33.30;1.00;;;;;;5031054;28;20403;-46
2023/02/22 10:59:36;;;;;;;5.30;4.80;;;33.50;1.00;;;;;;5033853;28;20404;-47
2023/02/22 11:02:14;;;;;;;4.97;3.50;;;33.90;1.00;;;;;;5034011;28;20427;-49
2023/02/22 11:04:51;;;;;;;5.43;4.20;;;34.50;1.00;;;;;;5033878;28;20431;-45
2023/02/22 11:07:19;;;;;;;7.50;4.73;;;34.60;1.00;;;;;;5037234;28;20441;-45
2023/02/22 11:09:46;;;;;;;7.80;4.20;;;34.60;1.00;;;;;;5034441;28;20425;-45
2023/02/22 11:12:25;;;;;;;5.53;4.33;;;34.20;1.00;;;;;;5032604;28;20549;-43
2023/02/22 11:14:50;;;;;;;6.73;4.43;;;33.70;1.00;;;;;;5033963;28;20824;-44
2023/02/22 11:17:22;;;;;;;6.80;4.80;;;33.20;99.90;;;;;;5033859;28;20400;-45
2023/02/22 11:19:49;;;;;;;4.60;4.20;;;33.30;99.90;;;;;;5031125;28;20510;-45
2023/02/22 11:22:25;;;;;;;4.40;4.00;;;33.40;99.90;;;;;;5033099;28;20497;-44
2023/02/22 11:24:54;;;;;;;6.23;4.10;;;32.80;99.90;;;;;;5035267;28;20428;-43
2023/02/22 11:27:42;;;;;;;7.33;4.23;;;32.30;99.90;;;;;;5034129;28;20884;-44
2023/02/22 11:30:10;;;;;;;5.10;3.73;;;32.10;99.90;;;;;;5036250;28;20426;-47
2023/02/22 11:32:46;;;;;;;5.20;4.27;;;32.40;99.90;;;;;;5033649;28;20383;-44
2023/02/22 11:35:35;;;;;;;4.63;3.60;;;32.80;99.90;;;;;;5032725;28;20425;-44
2023/02/22 11:38:24;;;;;;;5.60;4.47;;;32.80;99.90;;;;;;5032523;28;20542;-44
2023/02/22 11:41:16;;;;;;;5.07;4.30;;;32.50;99.90;;;;;;5030917;28;20439;-44
2023/02/22 11:43:47;;;;;;;6.40;4.53;;;31.90;99.90;;;;;;5021483;28;20913;-43
2023/02/22 11:46:27;;;;;;;4.17;3.10;;;31.30;99.90;;;;;;5029073;28;20413;-45
2023/02/22 11:49:05;;;;;;;3.37;3.07;;;30.90;99.90;;;;;;5028350;28;20963;-43
2023/02/22 11:51:57;;;;;;;4.17;3.37;;;30.80;99.90;;;;;;5029391;28;20439;-45
2023/02/22 11:54:58;;;;;;;3.90;3.47;;;31.90;99.90;;;;;;5030982;28;20413;-45
2023/02/22 11:57:32;;;;;;;5.17;4.00;;;33.20;99.90;;;;;;4976579;28;20591;-45
2023/02/22 12:00:14;;;;;;;4.73;3.73;;;35.10;99.90;;;;;;5049450;28;20447;-45
2023/02/22 12:02:58;;;;;;;6.30;3.40;;;36.60;1.00;;;;;;5050188;28;20424;-46
2023/02/22 12:05:58;;;;;;;6.73;3.90;;;37.30;1.00;;;;;;5050235;28;20412;-45
2023/02/22 12:08:36;;;;;;;5.90;4.07;;;37.60;1.00;;;;;;5050607;28;20412;-43
2023/02/22 12:11:17;;;;;;;4.93;4.30;;;37.70;1.00;;;;;;5051320;28;20681;-44
2023/02/22 12:13:48;;;;;;;4.97;4.53;;;37.20;1.00;;;;;;5051062;28;20534;-47
2023/02/22 12:16:22;;;;;;;17.00;4.80;;;36.80;1.00;;;;;;5052191;28;20415;-44
2023/02/22 12:18:52;;;;;;;5.73;5.23;;;36.30;1.00;;;;;;5055297;28;20383;-47
2023/02/22 12:21:19;;;;;;;4.93;4.43;;;36.30;1.00;;;;;;5055245;28;20478;-45
2023/02/22 12:23:54;;;;;;;4.50;4.10;;;36.90;1.00;;;;;;5053912;28;20706;-47
2023/02/22 12:26:25;;;;;;;4.70;4.30;;;37.80;1.00;;;;;;5055774;28;20451;-44
2023/02/22 12:28:58;;;;;;;4.40;4.00;;;38.70;1.00;;;;;;5054068;28;20416;-46
2023/02/22 12:31:35;;;;;;;5.17;4.67;;;38.90;1.00;;;;;;5053703;28;20586;-44
2023/02/22 12:34:30;;;;;;;4.70;4.30;;;38.70;1.00;;;;;;5053121;28;20422;-44
2023/02/22 12:37:11;;;;;;;4.87;4.47;;;38.80;1.00;;;;;;5037799;28;20436;-44
2023/02/22 12:39:58;;;;;;;4.83;4.40;;;38.90;1.00;;;;;;5054284;28;20426;-43
2023/02/22 12:43:00;;;;;;;6.20;4.10;;;39.20;1.00;;;;;;5056383;28;20420;-44
2023/02/22 12:45:38;;;;;;;5.27;4.77;;;39.90;1.00;;;;;;5053456;28;20878;-46
2023/02/22 12:48:26;;;;;;;5.63;5.10;;;40.20;1.00;;;;;;5053679;28;20463;-45
2023/02/22 12:51:17;;;;;;;6.13;4.40;;;40.20;1.00;;;;;;5052546;28;20439;-46
2023/02/22 12:53:51;;;;;;;5.47;4.33;;;40.60;1.00;;;;;;5041648;28;20443;-44
2023/02/22 12:56:27;;;;;;;5.67;5.07;;;41.10;1.00;;;;;;5054559;28;20412;-44
2023/02/22 12:58:58;;;;;;;5.47;4.97;;;41.10;1.00;;;;;;5052787;28;20806;-45
2023/02/22 13:01:28;;;;;;;5.27;4.80;;;41.40;1.00;;;;;;5053283;28;20519;-44
2023/02/22 13:03:54;;;;;;;4.93;4.40;;;42.30;1.00;;;;;;5052790;28;20861;-44
2023/02/22 13:06:35;;;;;;;5.50;5.10;;;42.80;1.00;;;;;;5047403;28;20443;-45
2023/02/22 13:09:23;;;;;;;4.93;4.13;;;43.70;1.00;;;;;;5049179;28;20451;-45
2023/02/22 13:12:04;;;;;;;4.93;4.53;;;44.30;1.00;;;;;;5047674;28;20441;-43
2023/02/22 13:15:01;;;;;;;5.07;4.67;;;44.20;1.00;;;;;;5032383;28;20429;-43
2023/02/22 13:17:39;;;;;;;5.50;5.00;;;43.60;1.00;;;;;;4988448;28;20429;-45